createdAt,value
2022-08-01T00:01:49.873Z,4.20
2022-08-01T00:04:16.404Z,4.35
2022-08-01T00:06:45.144Z,4.65
2022-08-01T00:09:11.731Z,4.38
2022-08-01T00:12:08.158Z,4.40
2022-08-01T00:14:34.785Z,3.97
2022-08-01T00:17:06.861Z,4.28
2022-08-01T00:19:34.605Z,4.60
2022-08-01T00:22:01.202Z,4.75
2022-08-01T00:24:27.649Z,4.75
2022-08-01T00:26:54.242Z,4.95
2022-08-01T00:30:01.007Z,3.92
2022-08-01T00:32:09.697Z,4.40
2022-08-01T00:34:37.676Z,4.30
2022-08-01T00:37:04.216Z,4.30
2022-08-01T00:39:30.810Z,4.38
2022-08-01T00:41:59.500Z,5.25
2022-08-01T00:44:29.369Z,4.45
2022-08-01T00:46:55.830Z,3.67
2022-08-01T00:49:22.446Z,3.90
2022-08-01T00:51:49.033Z,4.40
2022-08-01T00:54:17.049Z,3.83
2022-08-01T00:56:44.446Z,4.30
2022-08-01T00:59:13.981Z,4.47
2022-08-01T01:01:46.404Z,4.18
2022-08-01T01:04:14.138Z,3.90
2022-08-01T01:06:52.957Z,4.65
2022-08-01T01:09:32.453Z,4.15
2022-08-01T01:12:52.531Z,3.85
2022-08-01T01:15:27.645Z,4.32
2022-08-01T01:18:00.532Z,4.85
2022-08-01T01:20:33.048Z,3.80
2022-08-01T01:23:20.506Z,4.13
2022-08-01T01:26:25.616Z,4.05
2022-08-01T01:29:20.180Z,3.85
2022-08-01T01:32:09.083Z,3.63
2022-08-01T01:34:39.055Z,3.95
2022-08-01T01:37:09.847Z,3.95
2022-08-01T01:39:41.324Z,3.45
2022-08-01T01:42:12.203Z,3.67
2022-08-01T01:44:40.671Z,3.97
2022-08-01T01:47:09.701Z,4.03
2022-08-01T01:49:36.534Z,3.28
2022-08-01T01:52:05.268Z,4.13
2022-08-01T01:54:37.042Z,3.53
2022-08-01T01:57:05.329Z,3.78
2022-08-01T01:59:39.597Z,3.70
2022-08-01T02:02:08.705Z,3.83
2022-08-01T02:04:42.146Z,3.55
2022-08-01T02:07:10.212Z,3.58
2022-08-01T02:09:39.169Z,3.63
2022-08-01T02:12:07.798Z,3.40
2022-08-01T02:14:36.800Z,3.92
2022-08-01T02:17:04.045Z,3.42
2022-08-01T02:19:30.996Z,3.42
2022-08-01T02:22:02.535Z,3.28
2022-08-01T02:24:55.855Z,3.75
2022-08-01T02:27:26.799Z,3.80
2022-08-01T02:30:00.310Z,3.67
2022-08-01T02:32:35.679Z,3.33
2022-08-01T02:35:03.655Z,3.95
2022-08-01T02:37:34.439Z,3.40
2022-08-01T02:40:01.146Z,3.45
2022-08-01T02:42:30.389Z,3.47
2022-08-01T02:44:58.176Z,3.85
2022-08-01T02:47:27.523Z,3.72
2022-08-01T02:50:03.823Z,3.65
2022-08-01T02:52:32.661Z,3.10
2022-08-01T02:55:00.968Z,3.50
2022-08-01T02:57:39.487Z,2.90
2022-08-01T03:00:17.925Z,3.65
2022-08-01T03:02:46.059Z,3.10
2022-08-01T03:05:15.033Z,3.30
2022-08-01T03:07:42.806Z,3.00
2022-08-01T03:10:11.557Z,3.22
2022-08-01T03:12:40.048Z,2.85
2022-08-01T03:15:08.094Z,2.97
2022-08-01T03:17:40.380Z,3.20
2022-08-01T03:22:35.918Z,2.72
2022-08-01T03:25:03.954Z,3.28
2022-08-01T03:27:30.921Z,3.30
2022-08-01T03:29:59.106Z,3.17
2022-08-01T03:32:28.161Z,2.97
2022-08-01T03:34:54.855Z,3.20
2022-08-01T03:37:27.517Z,3.45
2022-08-01T03:40:07.260Z,3.17
2022-08-01T03:42:45.907Z,3.77
2022-08-01T03:45:20.696Z,3.33
2022-08-01T03:47:49.294Z,3.92
2022-08-01T03:50:22.516Z,3.97
2022-08-01T03:52:51.771Z,3.30
2022-08-01T03:55:19.813Z,3.33
2022-08-01T03:57:48.122Z,3.58
2022-08-01T04:00:15.324Z,3.70
2022-08-01T04:02:42.931Z,3.67
2022-08-01T04:05:09.983Z,4.30
2022-08-01T04:07:36.352Z,3.67
2022-08-01T04:10:03.251Z,3.95
2022-08-01T04:12:29.801Z,4.05
2022-08-01T04:14:56.553Z,4.10
2022-08-01T04:17:22.919Z,4.30
2022-08-01T04:19:49.475Z,4.13
2022-08-01T04:22:17.033Z,3.95
2022-08-01T04:24:52.190Z,3.88
2022-08-01T04:27:49.798Z,4.38
2022-08-01T04:30:18.108Z,4.07
2022-08-01T04:32:48.360Z,4.10
2022-08-01T04:35:22.930Z,3.60
2022-08-01T04:38:11.455Z,3.83
2022-08-01T04:40:39.023Z,4.13
2022-08-01T04:43:05.857Z,3.70
2022-08-01T04:45:33.553Z,3.75
2022-08-01T04:48:01.071Z,3.72
2022-08-01T04:50:28.271Z,4.00
2022-08-01T04:52:55.936Z,4.15
2022-08-01T04:55:22.411Z,4.28
2022-08-01T04:57:49.013Z,4.25
2022-08-01T05:00:16.149Z,3.90
2022-08-01T05:02:42.798Z,3.92
2022-08-01T05:05:09.881Z,3.75
2022-08-01T05:07:44.956Z,3.65
2022-08-01T05:10:12.788Z,3.95
2022-08-01T05:12:39.270Z,3.10
2022-08-01T05:15:15.173Z,2.78
2022-08-01T05:17:42.266Z,3.40
2022-08-01T05:20:09.149Z,3.33
2022-08-01T05:22:35.624Z,3.00
2022-08-01T05:25:03.134Z,3.05
2022-08-01T05:27:32.787Z,3.70
2022-08-01T05:30:00.423Z,3.85
2022-08-01T05:32:26.889Z,3.85
2022-08-01T05:34:53.253Z,3.80
2022-08-01T05:37:19.892Z,3.47
2022-08-01T05:39:46.431Z,3.08
2022-08-01T05:42:13.108Z,3.28
2022-08-01T05:44:40.724Z,3.55
2022-08-01T05:47:07.248Z,2.95
2022-08-01T05:49:33.790Z,3.08
2022-08-01T05:52:00.516Z,3.83
2022-08-01T05:54:26.919Z,3.20
2022-08-01T05:56:53.343Z,3.22
2022-08-01T05:59:20.330Z,3.15
2022-08-01T06:01:46.771Z,2.95
2022-08-01T06:04:13.428Z,3.40
2022-08-01T06:06:39.851Z,3.20
2022-08-01T06:09:06.331Z,3.70
2022-08-01T06:11:32.914Z,3.33
2022-08-01T06:13:59.287Z,3.80
2022-08-01T06:16:27.132Z,3.78
2022-08-01T06:18:56.624Z,3.13
2022-08-01T06:21:26.486Z,3.17
2022-08-01T06:23:53.190Z,3.37
2022-08-01T06:26:19.988Z,3.10
2022-08-01T06:28:46.629Z,3.30
2022-08-01T06:31:13.178Z,3.78
2022-08-01T06:33:39.619Z,3.63
2022-08-01T06:36:06.461Z,2.83
2022-08-01T06:38:33.878Z,3.58
2022-08-01T06:41:00.356Z,3.30
2022-08-01T06:43:27.033Z,3.22
2022-08-01T06:45:55.682Z,2.95
2022-08-01T06:48:22.130Z,3.15
2022-08-01T06:50:48.909Z,2.70
2022-08-01T06:53:15.654Z,2.75
2022-08-01T06:55:43.611Z,3.17
2022-08-01T06:58:10.316Z,3.05
2022-08-01T07:00:41.487Z,2.90
2022-08-01T07:03:11.091Z,3.20
2022-08-01T07:05:37.604Z,3.10
2022-08-01T07:08:04.270Z,2.80
2022-08-01T07:10:32.017Z,2.85
2022-08-01T07:12:58.531Z,2.70
2022-08-01T07:15:25.286Z,2.67
2022-08-01T07:17:51.976Z,3.10
2022-08-01T07:20:19.143Z,3.03
2022-08-01T07:22:48.161Z,3.15
2022-08-01T07:25:15.381Z,2.97
2022-08-01T07:27:41.813Z,2.80
2022-08-01T07:30:08.985Z,2.90
2022-08-01T07:32:35.738Z,2.90
2022-08-01T07:35:03.660Z,2.83
2022-08-01T07:37:42.109Z,2.78
2022-08-01T07:40:15.366Z,2.70
2022-08-01T07:42:42.033Z,3.20
2022-08-01T07:45:09.080Z,2.78
2022-08-01T07:47:35.729Z,2.50
2022-08-01T07:50:03.917Z,2.20
2022-08-01T07:52:30.370Z,2.47
2022-08-01T07:54:57.864Z,2.42
2022-08-01T07:57:25.350Z,2.42
2022-08-01T07:59:52.907Z,3.22
2022-08-01T08:02:19.478Z,2.50
2022-08-01T08:04:49.122Z,2.92
2022-08-01T08:07:17.484Z,2.17
2022-08-01T08:09:44.178Z,2.10
2022-08-01T08:12:17.701Z,2.42
2022-08-01T08:14:44.982Z,2.17
2022-08-01T08:17:11.441Z,2.22
2022-08-01T08:19:39.154Z,2.75
2022-08-01T08:22:07.775Z,2.53
2022-08-01T08:24:34.911Z,2.65
2022-08-01T08:27:02.690Z,2.20
2022-08-01T08:29:30.856Z,2.40
2022-08-01T08:31:57.815Z,2.30
2022-08-01T08:34:24.973Z,1.90
2022-08-01T08:36:52.504Z,2.53
2022-08-01T08:39:19.891Z,2.28
2022-08-01T08:41:49.573Z,1.92
2022-08-01T08:44:19.350Z,2.00
2022-08-01T08:46:52.151Z,2.45
2022-08-01T08:49:21.599Z,2.20
2022-08-01T08:51:51.952Z,2.40
2022-08-01T08:54:20.742Z,2.17
2022-08-01T08:56:48.016Z,2.45
2022-08-01T08:59:17.112Z,2.53
2022-08-01T09:01:43.873Z,2.20
2022-08-01T09:04:12.501Z,2.28
2022-08-01T09:06:40.846Z,2.33
2022-08-01T09:09:09.646Z,1.85
2022-08-01T09:11:38.226Z,2.28
2022-08-01T09:14:11.393Z,2.28
2022-08-01T09:16:47.963Z,2.05
2022-08-01T09:19:39.899Z,2.00
2022-08-01T09:22:19.742Z,2.50
2022-08-01T09:25:11.345Z,2.10
2022-08-01T09:27:44.157Z,2.75
2022-08-01T09:30:19.637Z,3.38
2022-08-01T09:32:58.783Z,2.90
2022-08-01T09:35:32.023Z,2.72
2022-08-01T09:38:19.942Z,2.72
2022-08-01T09:41:02.218Z,2.72
2022-08-01T09:43:31.956Z,2.83
2022-08-01T09:46:00.025Z,2.88
2022-08-01T09:48:28.602Z,2.50
2022-08-01T09:51:04.042Z,3.25
2022-08-01T09:54:03.093Z,3.25
2022-08-01T09:56:38.225Z,3.78
2022-08-01T09:59:05.797Z,4.03
2022-08-01T10:01:47.025Z,3.33
2022-08-01T10:04:21.084Z,3.85
2022-08-01T10:06:50.233Z,3.85
2022-08-01T10:09:28.290Z,3.88
2022-08-01T10:12:15.464Z,3.53
2022-08-01T10:14:46.037Z,3.92
2022-08-01T10:17:18.370Z,3.50
2022-08-01T10:19:48.882Z,4.05
2022-08-01T10:22:15.566Z,3.70
2022-08-01T10:24:44.917Z,3.75
2022-08-01T10:27:14.633Z,4.40
2022-08-01T10:30:06.806Z,4.22
2022-08-01T10:32:42.505Z,3.83
2022-08-01T10:35:15.320Z,4.32
2022-08-01T10:37:52.095Z,4.43
2022-08-01T10:40:30.005Z,4.38
2022-08-01T10:42:58.016Z,4.18
2022-08-01T10:45:25.428Z,4.28
2022-08-01T10:48:00.870Z,3.63
2022-08-01T10:50:49.413Z,4.57
2022-08-01T10:53:31.876Z,4.90
2022-08-01T10:56:09.089Z,4.50
2022-08-01T10:58:42.554Z,4.30
2022-08-01T11:01:21.710Z,5.00
2022-08-01T11:04:02.881Z,4.50
2022-08-01T11:06:33.507Z,4.72
2022-08-01T11:09:05.777Z,3.97
2022-08-01T11:11:37.236Z,4.25
2022-08-01T11:14:05.813Z,4.22
2022-08-01T11:16:32.992Z,4.25
2022-08-01T11:18:59.642Z,3.50
2022-08-01T11:22:01.173Z,4.07
2022-08-01T11:24:50.629Z,4.25
2022-08-01T11:27:23.914Z,4.22
2022-08-01T11:30:09.329Z,3.70
2022-08-01T11:33:12.162Z,3.40
2022-08-01T11:36:01.076Z,3.60
2022-08-01T11:38:29.112Z,3.40
2022-08-01T11:41:16.786Z,3.58
2022-08-01T11:44:06.147Z,3.30
2022-08-01T11:46:54.865Z,2.80
2022-08-01T11:49:43.464Z,2.95
2022-08-01T11:52:14.779Z,3.30
2022-08-01T11:54:49.383Z,3.20
2022-08-01T11:57:23.028Z,2.75
2022-08-01T12:00:03.280Z,2.75
2022-08-01T12:02:35.282Z,2.58
2022-08-01T12:05:08.337Z,2.65
2022-08-01T12:07:36.895Z,2.90
2022-08-01T12:10:11.674Z,2.40
2022-08-01T12:12:44.285Z,2.50
2022-08-01T12:15:11.749Z,2.92
2022-08-01T12:17:47.092Z,3.05
2022-08-01T12:20:29.615Z,2.38
2022-08-01T12:22:59.061Z,2.60
2022-08-01T12:25:25.559Z,2.60
2022-08-01T12:27:56.022Z,2.92
2022-08-01T12:30:26.100Z,2.63
2022-08-01T12:32:54.275Z,2.20
2022-08-01T12:35:23.039Z,2.70
2022-08-01T12:38:00.892Z,2.50
2022-08-01T12:40:30.375Z,3.03
2022-08-01T12:42:59.825Z,3.10
2022-08-01T12:45:28.816Z,2.40
2022-08-01T12:47:56.083Z,2.70
2022-08-01T12:50:24.779Z,2.50
2022-08-01T12:52:51.852Z,2.53
2022-08-01T12:55:22.306Z,2.10
2022-08-01T12:57:51.382Z,2.30
2022-08-01T13:00:19.625Z,2.35
2022-08-01T13:02:48.473Z,2.53
2022-08-01T13:05:16.204Z,2.50
2022-08-01T13:07:51.352Z,2.33
2022-08-01T13:10:29.801Z,2.53
2022-08-01T13:12:58.979Z,2.28
2022-08-01T13:15:32.439Z,2.50
2022-08-01T13:18:00.969Z,2.22
2022-08-01T13:20:34.128Z,2.85
2022-08-01T13:24:01.908Z,2.15
2022-08-01T13:26:05.294Z,2.28
2022-08-01T13:28:31.836Z,2.03
2022-08-01T13:31:06.658Z,2.90
2022-08-01T13:33:54.223Z,2.65
2022-08-01T13:36:31.127Z,3.50
2022-08-01T13:38:58.890Z,2.90
2022-08-01T13:41:25.619Z,2.90
2022-08-01T13:44:01.280Z,2.20
2022-08-01T13:46:29.620Z,1.90
2022-08-01T13:48:58.689Z,2.30
2022-08-01T13:51:32.318Z,2.22
2022-08-01T13:53:58.983Z,2.00
2022-08-01T13:56:25.888Z,2.38
2022-08-01T13:58:52.301Z,2.30
2022-08-01T14:01:18.975Z,2.35
2022-08-01T14:03:47.082Z,2.10
2022-08-01T14:06:15.515Z,2.38
2022-08-01T14:08:45.998Z,1.83
2022-08-01T14:11:12.733Z,2.00
2022-08-01T14:13:40.466Z,2.30
2022-08-01T14:16:13.351Z,2.00
2022-08-01T14:18:42.067Z,2.30
2022-08-01T14:21:10.837Z,2.10
2022-08-01T14:23:37.368Z,1.95
2022-08-01T14:26:09.766Z,2.10
2022-08-01T14:28:40.409Z,2.17
2022-08-01T14:31:08.042Z,2.10
2022-08-01T14:33:34.788Z,1.75
2022-08-01T14:36:29.700Z,1.92
2022-08-01T14:38:48.491Z,2.05
2022-08-01T14:41:15.668Z,1.85
2022-08-01T14:43:42.145Z,2.15
2022-08-01T14:46:08.771Z,2.22
2022-08-01T14:48:35.134Z,2.13
2022-08-01T14:51:01.713Z,1.80
2022-08-01T14:53:28.080Z,1.77
2022-08-01T14:55:54.792Z,1.80
2022-08-01T14:58:21.476Z,1.60
2022-08-01T15:00:48.593Z,1.70
2022-08-01T15:03:16.418Z,2.03
2022-08-01T15:05:42.853Z,2.38
2022-08-01T15:08:09.310Z,1.90
2022-08-01T15:10:35.777Z,1.73
2022-08-01T15:13:02.407Z,2.20
2022-08-01T15:15:28.911Z,2.17
2022-08-01T15:17:56.724Z,1.70
2022-08-01T15:20:23.568Z,1.70
2022-08-01T15:22:50.257Z,1.42
2022-08-01T15:25:17.009Z,1.65
2022-08-01T15:27:43.489Z,2.38
2022-08-01T15:30:10.271Z,1.60
2022-08-01T15:32:36.719Z,1.60
2022-08-01T15:35:03.436Z,2.10
2022-08-01T15:37:29.837Z,2.20
2022-08-01T15:39:56.841Z,1.90
2022-08-01T15:42:27.023Z,1.77
2022-08-01T15:44:56.372Z,1.90
2022-08-01T15:47:24.937Z,1.88
2022-08-01T15:49:52.419Z,1.98
2022-08-01T15:52:22.069Z,2.08
2022-08-01T15:54:53.890Z,1.80
2022-08-01T15:57:20.332Z,1.92
2022-08-01T15:59:46.800Z,1.80
2022-08-01T16:02:13.440Z,2.00
2022-08-01T16:04:40.193Z,2.10
2022-08-01T16:07:06.977Z,2.38
2022-08-01T16:09:33.618Z,2.20
2022-08-01T16:12:00.465Z,2.10
2022-08-01T16:14:26.895Z,1.85
2022-08-01T16:16:56.519Z,2.03
2022-08-01T16:19:22.977Z,1.92
2022-08-01T16:21:49.688Z,2.05
2022-08-01T16:24:16.182Z,2.40
2022-08-01T16:26:42.855Z,2.75
2022-08-01T16:29:09.367Z,2.60
2022-08-01T16:31:51.392Z,2.30
2022-08-01T16:34:22.318Z,1.90
2022-08-01T16:36:51.536Z,1.88
2022-08-01T16:39:22.765Z,2.10
2022-08-01T16:41:50.218Z,2.38
2022-08-01T16:44:29.101Z,2.20
2022-08-01T16:47:00.619Z,1.98
2022-08-01T16:49:28.533Z,2.30
2022-08-01T16:51:55.727Z,2.15
2022-08-01T16:54:25.485Z,2.58
2022-08-01T16:56:52.926Z,2.60
2022-08-01T16:59:19.631Z,2.20
2022-08-01T17:01:59.351Z,3.05
2022-08-01T17:04:29.326Z,2.45
2022-08-01T17:06:57.809Z,1.90
2022-08-01T17:09:24.404Z,2.00
2022-08-01T17:11:51.250Z,2.10
2022-08-01T17:14:18.009Z,2.10
2022-08-01T17:16:44.779Z,2.20
2022-08-01T17:19:11.250Z,2.08
2022-08-01T17:21:41.225Z,2.75
2022-08-01T17:24:08.637Z,2.40
2022-08-01T17:26:35.217Z,1.92
2022-08-01T17:29:01.589Z,1.98
2022-08-01T17:31:28.339Z,1.80
2022-08-01T17:33:55.402Z,2.00
2022-08-01T17:36:22.377Z,2.22
2022-08-01T17:38:49.263Z,2.15
2022-08-01T17:41:16.797Z,1.77
2022-08-01T17:43:43.420Z,2.08
2022-08-01T17:46:11.486Z,2.40
2022-08-01T17:48:37.879Z,2.15
2022-08-01T17:51:04.340Z,1.80
2022-08-01T17:53:30.875Z,2.15
2022-08-01T17:55:58.131Z,2.53
2022-08-01T17:58:33.168Z,2.28
2022-08-01T18:01:16.577Z,1.75
2022-08-01T18:03:46.523Z,2.25
2022-08-01T18:06:15.729Z,1.85
2022-08-01T18:08:42.995Z,2.00
2022-08-01T18:11:09.558Z,2.00
2022-08-01T18:13:36.304Z,2.10
2022-08-01T18:16:04.116Z,1.85
2022-08-01T18:18:33.016Z,1.90
2022-08-01T18:21:02.438Z,1.80
2022-08-01T18:23:29.103Z,2.10
2022-08-01T18:25:55.879Z,2.10
2022-08-01T18:28:33.721Z,2.20
2022-08-01T18:31:03.724Z,2.20
2022-08-01T18:33:30.368Z,1.80
2022-08-01T18:36:01.655Z,1.77
2022-08-01T18:38:30.053Z,2.20
2022-08-01T18:40:57.268Z,2.22
2022-08-01T18:43:24.062Z,1.92
2022-08-01T18:45:50.585Z,1.90
2022-08-01T18:48:18.045Z,2.10
2022-08-01T18:50:45.416Z,1.90
2022-08-01T18:53:12.188Z,1.98
2022-08-01T18:55:38.688Z,1.95
2022-08-01T18:58:05.338Z,2.05
2022-08-01T19:00:32.380Z,2.20
2022-08-01T19:02:58.767Z,2.22
2022-08-01T19:05:25.234Z,2.10
2022-08-01T19:08:05.093Z,2.05
2022-08-01T19:10:41.997Z,2.15
2022-08-01T19:13:09.246Z,2.22
2022-08-01T19:15:36.040Z,2.20
2022-08-01T19:18:02.589Z,2.22
2022-08-01T19:20:29.339Z,1.85
2022-08-01T19:22:57.838Z,2.13
2022-08-01T19:25:24.525Z,1.90
2022-08-01T19:27:51.306Z,1.83
2022-08-01T19:30:18.881Z,2.00
2022-08-01T19:32:47.230Z,2.17
2022-08-01T19:35:15.326Z,2.35
2022-08-01T19:37:43.757Z,1.98
2022-08-01T19:40:10.613Z,1.88
2022-08-01T19:42:40.690Z,2.28
2022-08-01T19:45:08.301Z,2.42
2022-08-01T19:47:51.851Z,2.50
2022-08-01T19:50:21.511Z,2.10
2022-08-01T19:52:51.779Z,2.78
2022-08-01T19:55:18.729Z,2.72
2022-08-01T19:57:59.438Z,2.47
2022-08-01T20:00:37.126Z,3.08
2022-08-01T20:03:04.331Z,2.63
2022-08-01T20:05:31.984Z,2.30
2022-08-01T20:07:59.725Z,3.38
2022-08-01T20:10:26.402Z,2.70
2022-08-01T20:12:56.474Z,3.08
2022-08-01T20:15:26.703Z,2.47
2022-08-01T20:17:58.059Z,2.80
2022-08-01T20:20:24.777Z,3.17
2022-08-01T20:22:55.923Z,2.40
2022-08-01T20:25:33.336Z,4.45
2022-08-01T20:28:10.902Z,2.00
2022-08-01T20:30:39.000Z,2.40
2022-08-01T20:33:07.160Z,2.35
2022-08-01T20:35:52.015Z,1.95
2022-08-01T20:38:23.937Z,4.68
2022-08-01T20:40:52.632Z,1.17
2022-08-01T20:43:21.061Z,2.00
2022-08-01T20:45:48.502Z,3.10
2022-08-01T20:48:16.758Z,1.88
2022-08-01T20:50:53.249Z,1.60
2022-08-01T20:53:21.378Z,2.50
2022-08-01T20:55:59.482Z,2.40
2022-08-01T20:58:50.245Z,1.80
2022-08-01T21:01:25.080Z,1.60
2022-08-01T21:04:22.983Z,1.70
2022-08-01T21:06:59.055Z,1.80
2022-08-01T21:09:27.207Z,2.17
2022-08-01T21:12:05.933Z,1.55
2022-08-01T21:14:53.402Z,1.67
2022-08-01T21:17:51.180Z,1.90
2022-08-01T21:20:19.666Z,1.55
2022-08-01T21:22:54.896Z,1.58
2022-08-01T21:25:27.155Z,1.80
2022-08-01T21:27:55.002Z,1.20
2022-08-01T21:30:24.149Z,1.35
2022-08-01T21:32:52.128Z,1.80
2022-08-01T21:35:24.890Z,1.58
2022-08-01T21:37:52.998Z,1.60
2022-08-01T21:40:24.751Z,1.65
2022-08-01T21:42:52.916Z,1.60
2022-08-01T21:45:26.850Z,1.77
2022-08-01T21:47:54.361Z,1.30
2022-08-01T21:50:21.928Z,1.70
2022-08-01T21:53:09.102Z,1.52
2022-08-01T21:55:59.600Z,1.15
2022-08-01T21:58:33.712Z,1.50
2022-08-01T22:01:03.860Z,1.70
2022-08-01T22:03:35.492Z,1.30
2022-08-01T22:06:05.725Z,0.73
2022-08-01T22:08:36.021Z,1.15
2022-08-01T22:11:07.637Z,1.33
2022-08-01T22:13:36.024Z,0.90
2022-08-01T22:16:04.789Z,0.93
2022-08-01T22:18:32.500Z,1.10
2022-08-01T22:21:02.150Z,1.40
2022-08-01T22:23:29.168Z,1.27
2022-08-01T22:25:56.166Z,1.17
2022-08-01T22:28:25.295Z,1.10
2022-08-01T22:30:52.473Z,1.55
2022-08-01T22:33:19.866Z,1.65
2022-08-01T22:35:50.982Z,1.52
2022-08-01T22:38:19.041Z,1.60
2022-08-01T22:40:55.698Z,1.67
2022-08-01T22:43:42.859Z,1.40
2022-08-01T22:46:24.393Z,1.83
2022-08-01T22:49:00.901Z,1.70
2022-08-01T22:51:55.362Z,1.25
2022-08-01T22:54:28.817Z,1.30
2022-08-01T22:56:56.904Z,1.60
2022-08-01T22:59:43.240Z,1.58
2022-08-01T23:02:17.353Z,1.45
2022-08-01T23:04:47.681Z,1.60
2022-08-01T23:07:26.519Z,1.90
2022-08-01T23:09:56.349Z,1.40
2022-08-01T23:12:25.213Z,1.63
2022-08-01T23:14:57.677Z,1.90
2022-08-01T23:17:31.591Z,1.52
2022-08-01T23:20:05.552Z,1.95
2022-08-01T23:22:35.930Z,1.52
2022-08-01T23:25:06.771Z,1.65
2022-08-01T23:28:03.679Z,1.95
2022-08-01T23:30:28.273Z,1.40
2022-08-01T23:32:55.046Z,1.70
2022-08-01T23:35:21.747Z,1.55
2022-08-01T23:37:48.503Z,2.22
2022-08-01T23:40:14.986Z,1.55
2022-08-01T23:42:44.103Z,1.83
2022-08-01T23:45:10.869Z,1.95
2022-08-01T23:47:37.722Z,1.98
2022-08-01T23:50:04.588Z,1.85
2022-08-01T23:52:33.948Z,2.13
2022-08-01T23:55:10.880Z,1.98
2022-08-01T23:57:42.424Z,3.13
